sensor_id;sensor_type;location;lat;lon;timestamp;temperature;humidity
15413;DHT22;7805;49.554;7.632;2023-08-17T00:01:50;19.50;99.90
15413;DHT22;7805;49.554;7.632;2023-08-17T00:04:16;19.40;99.90
15413;DHT22;7805;49.554;7.632;2023-08-17T00:06:42;19.30;99.90
15413;DHT22;7805;49.554;7.632;2023-08-17T00:09:08;19.50;99.90
15413;DHT22;7805;49.554;7.632;2023-08-17T00:11:34;19.40;99.90
15413;DHT22;7805;49.554;7.632;2023-08-17T00:14:00;19.50;99.90
15413;DHT22;7805;49.554;7.632;2023-08-17T00:16:26;19.40;99.90
15413;DHT22;7805;49.554;7.632;2023-08-17T00:18:51;19.60;99.90
15413;DHT22;7805;49.554;7.632;2023-08-17T00:21:17;19.30;99.90
15413;DHT22;7805;49.554;7.632;2023-08-17T00:23:43;19.40;99.90
15413;DHT22;7805;49.554;7.632;2023-08-17T00:26:09;19.50;99.90
15413;DHT22;7805;49.554;7.632;2023-08-17T00:28:34;19.40;99.90
15413;DHT22;7805;49.554;7.632;2023-08-17T00:31:01;19.30;99.90
15413;DHT22;7805;49.554;7.632;2023-08-17T00:33:27;19.50;99.90
15413;DHT22;7805;49.554;7.632;2023-08-17T00:35:52;19.40;99.90
15413;DHT22;7805;49.554;7.632;2023-08-17T00:38:18;19.50;99.90
15413;DHT22;7805;49.554;7.632;2023-08-17T00:40:43;19.50;99.90
15413;DHT22;7805;49.554;7.632;2023-08-17T00:43:09;19.60;99.90
15413;DHT22;7805;49.554;7.632;2023-08-17T00:45:35;19.40;99.90
15413;DHT22;7805;49.554;7.632;2023-08-17T00:48:00;19.30;99.90
15413;DHT22;7805;49.554;7.632;2023-08-17T00:50:27;19.40;99.90
15413;DHT22;7805;49.554;7.632;2023-08-17T00:52:55;19.40;99.90
15413;DHT22;7805;49.554;7.632;2023-08-17T00:55:21;19.40;99.90
15413;DHT22;7805;49.554;7.632;2023-08-17T00:57:47;19.60;99.90
15413;DHT22;7805;49.554;7.632;2023-08-17T01:00:13;19.50;99.90
15413;DHT22;7805;49.554;7.632;2023-08-17T01:02:41;19.30;99.90
15413;DHT22;7805;49.554;7.632;2023-08-17T01:05:07;19.30;99.90
15413;DHT22;7805;49.554;7.632;2023-08-17T01:07:32;19.30;99.90
15413;DHT22;7805;49.554;7.632;2023-08-17T01:09:59;19.30;99.90
15413;DHT22;7805;49.554;7.632;2023-08-17T01:12:30;19.40;99.90
15413;DHT22;7805;49.554;7.632;2023-08-17T01:20:06;19.30;99.90
15413;DHT22;7805;49.554;7.632;2023-08-17T01:22:35;19.20;99.90
15413;DHT22;7805;49.554;7.632;2023-08-17T01:25:02;19.30;99.90
15413;DHT22;7805;49.554;7.632;2023-08-17T01:27:41;19.30;99.90
15413;DHT22;7805;49.554;7.632;2023-08-17T01:30:08;19.20;99.90
15413;DHT22;7805;49.554;7.632;2023-08-17T01:32:51;19.10;99.90
15413;DHT22;7805;49.554;7.632;2023-08-17T01:35:37;19.00;99.90
15413;DHT22;7805;49.554;7.632;2023-08-17T01:38:07;19.00;99.90
15413;DHT22;7805;49.554;7.632;2023-08-17T01:40:35;19.00;99.90
15413;DHT22;7805;49.554;7.632;2023-08-17T01:43:04;19.00;99.90
15413;DHT22;7805;49.554;7.632;2023-08-17T01:45:30;18.80;99.90
15413;DHT22;7805;49.554;7.632;2023-08-17T01:47:56;18.70;99.90
15413;DHT22;7805;49.554;7.632;2023-08-17T01:50:22;18.80;99.90
15413;DHT22;7805;49.554;7.632;2023-08-17T01:52:48;18.80;99.90
15413;DHT22;7805;49.554;7.632;2023-08-17T01:55:15;18.70;99.90
15413;DHT22;7805;49.554;7.632;2023-08-17T01:57:41;18.70;99.90
15413;DHT22;7805;49.554;7.632;2023-08-17T02:00:07;18.70;99.90
15413;DHT22;7805;49.554;7.632;2023-08-17T02:02:36;18.80;99.90
15413;DHT22;7805;49.554;7.632;2023-08-17T02:05:01;18.90;99.90
15413;DHT22;7805;49.554;7.632;2023-08-17T02:07:27;18.90;99.90
15413;DHT22;7805;49.554;7.632;2023-08-17T02:09:53;18.80;99.90
15413;DHT22;7805;49.554;7.632;2023-08-17T02:12:19;18.80;99.90
15413;DHT22;7805;49.554;7.632;2023-08-17T02:14:44;18.90;99.90
15413;DHT22;7805;49.554;7.632;2023-08-17T02:17:10;18.80;99.90
15413;DHT22;7805;49.554;7.632;2023-08-17T02:19:35;18.70;99.90
15413;DHT22;7805;49.554;7.632;2023-08-17T02:22:01;18.70;99.90
15413;DHT22;7805;49.554;7.632;2023-08-17T02:24:27;18.70;99.90
15413;DHT22;7805;49.554;7.632;2023-08-17T02:26:52;18.80;99.90
15413;DHT22;7805;49.554;7.632;2023-08-17T02:29:18;18.90;99.90
15413;DHT22;7805;49.554;7.632;2023-08-17T02:31:43;18.90;99.90
15413;DHT22;7805;49.554;7.632;2023-08-17T02:34:09;18.90;99.90
15413;DHT22;7805;49.554;7.632;2023-08-17T02:36:35;19.20;99.90
15413;DHT22;7805;49.554;7.632;2023-08-17T02:39:01;19.00;99.90
15413;DHT22;7805;49.554;7.632;2023-08-17T02:41:28;19.00;99.90
15413;DHT22;7805;49.554;7.632;2023-08-17T02:43:55;19.00;99.90
15413;DHT22;7805;49.554;7.632;2023-08-17T02:46:21;19.00;99.90
15413;DHT22;7805;49.554;7.632;2023-08-17T02:48:47;19.00;99.90
15413;DHT22;7805;49.554;7.632;2023-08-17T02:51:13;19.00;99.90
15413;DHT22;7805;49.554;7.632;2023-08-17T02:53:38;19.00;99.90
15413;DHT22;7805;49.554;7.632;2023-08-17T02:56:04;19.10;99.90
15413;DHT22;7805;49.554;7.632;2023-08-17T02:58:30;19.00;99.90
15413;DHT22;7805;49.554;7.632;2023-08-17T03:00:55;19.00;99.90
15413;DHT22;7805;49.554;7.632;2023-08-17T03:03:21;19.00;99.90
15413;DHT22;7805;49.554;7.632;2023-08-17T03:05:47;19.00;99.90
15413;DHT22;7805;49.554;7.632;2023-08-17T03:08:12;18.90;99.90
15413;DHT22;7805;49.554;7.632;2023-08-17T03:10:38;18.90;99.90
15413;DHT22;7805;49.554;7.632;2023-08-17T03:13:04;18.90;99.90
15413;DHT22;7805;49.554;7.632;2023-08-17T03:15:29;18.80;99.90
15413;DHT22;7805;49.554;7.632;2023-08-17T03:17:55;18.80;99.90
15413;DHT22;7805;49.554;7.632;2023-08-17T03:20:21;18.80;99.90
15413;DHT22;7805;49.554;7.632;2023-08-17T03:22:46;18.80;99.90
15413;DHT22;7805;49.554;7.632;2023-08-17T03:25:12;18.90;99.90
15413;DHT22;7805;49.554;7.632;2023-08-17T03:27:37;18.90;99.90
15413;DHT22;7805;49.554;7.632;2023-08-17T03:30:04;18.90;99.90
15413;DHT22;7805;49.554;7.632;2023-08-17T03:32:30;18.80;99.90
15413;DHT22;7805;49.554;7.632;2023-08-17T03:34:55;18.70;99.90
15413;DHT22;7805;49.554;7.632;2023-08-17T03:37:21;18.70;99.90
15413;DHT22;7805;49.554;7.632;2023-08-17T03:39:46;18.60;99.90
15413;DHT22;7805;49.554;7.632;2023-08-17T03:42:12;18.70;99.90
15413;DHT22;7805;49.554;7.632;2023-08-17T03:44:38;18.70;99.90
15413;DHT22;7805;49.554;7.632;2023-08-17T03:47:03;18.60;99.90
15413;DHT22;7805;49.554;7.632;2023-08-17T03:49:29;18.60;99.90
15413;DHT22;7805;49.554;7.632;2023-08-17T03:51:54;18.70;99.90
15413;DHT22;7805;49.554;7.632;2023-08-17T03:54:20;18.60;99.90
15413;DHT22;7805;49.554;7.632;2023-08-17T03:56:46;18.70;99.90
15413;DHT22;7805;49.554;7.632;2023-08-17T03:59:11;18.80;99.90
15413;DHT22;7805;49.554;7.632;2023-08-17T04:01:37;18.70;99.90
15413;DHT22;7805;49.554;7.632;2023-08-17T04:04:02;18.70;99.90
15413;DHT22;7805;49.554;7.632;2023-08-17T04:06:28;18.70;99.90
15413;DHT22;7805;49.554;7.632;2023-08-17T04:08:54;18.80;99.90
15413;DHT22;7805;49.554;7.632;2023-08-17T04:11:19;18.70;99.90
15413;DHT22;7805;49.554;7.632;2023-08-17T04:13:45;18.70;99.90
15413;DHT22;7805;49.554;7.632;2023-08-17T04:16:11;19.80;99.90
15413;DHT22;7805;49.554;7.632;2023-08-17T04:18:36;18.90;99.90
15413;DHT22;7805;49.554;7.632;2023-08-17T04:21:02;18.90;99.90
15413;DHT22;7805;49.554;7.632;2023-08-17T04:23:27;18.90;99.90
15413;DHT22;7805;49.554;7.632;2023-08-17T04:25:54;18.80;99.90
15413;DHT22;7805;49.554;7.632;2023-08-17T04:28:20;18.80;99.90
15413;DHT22;7805;49.554;7.632;2023-08-17T04:30:46;18.70;99.90
15413;DHT22;7805;49.554;7.632;2023-08-17T04:33:11;18.80;99.90
15413;DHT22;7805;49.554;7.632;2023-08-17T04:35:38;18.80;99.90
15413;DHT22;7805;49.554;7.632;2023-08-17T04:38:04;18.70;99.90
15413;DHT22;7805;49.554;7.632;2023-08-17T04:40:30;18.90;99.90
15413;DHT22;7805;49.554;7.632;2023-08-17T04:42:56;18.90;99.90
15413;DHT22;7805;49.554;7.632;2023-08-17T04:45:21;19.00;99.90
15413;DHT22;7805;49.554;7.632;2023-08-17T04:47:47;19.10;99.90
15413;DHT22;7805;49.554;7.632;2023-08-17T04:50:12;19.10;99.90
15413;DHT22;7805;49.554;7.632;2023-08-17T04:52:44;19.10;99.90
15413;DHT22;7805;49.554;7.632;2023-08-17T04:55:10;19.20;99.90
15413;DHT22;7805;49.554;7.632;2023-08-17T04:57:36;19.20;99.90
15413;DHT22;7805;49.554;7.632;2023-08-17T05:00:02;19.20;99.90
15413;DHT22;7805;49.554;7.632;2023-08-17T05:02:28;19.30;99.90
15413;DHT22;7805;49.554;7.632;2023-08-17T05:04:54;19.30;99.90
15413;DHT22;7805;49.554;7.632;2023-08-17T05:07:20;19.30;99.90
15413;DHT22;7805;49.554;7.632;2023-08-17T05:09:45;19.30;99.90
15413;DHT22;7805;49.554;7.632;2023-08-17T05:12:11;19.40;99.90
15413;DHT22;7805;49.554;7.632;2023-08-17T05:14:36;19.40;99.90
15413;DHT22;7805;49.554;7.632;2023-08-17T05:17:02;19.50;99.90
15413;DHT22;7805;49.554;7.632;2023-08-17T05:19:28;19.40;99.90
15413;DHT22;7805;49.554;7.632;2023-08-17T05:21:53;19.40;99.90
15413;DHT22;7805;49.554;7.632;2023-08-17T05:24:19;19.30;99.90
15413;DHT22;7805;49.554;7.632;2023-08-17T05:26:45;19.40;99.90
15413;DHT22;7805;49.554;7.632;2023-08-17T05:29:11;19.40;99.90
15413;DHT22;7805;49.554;7.632;2023-08-17T05:31:37;19.40;99.90
15413;DHT22;7805;49.554;7.632;2023-08-17T05:34:02;19.50;99.90
15413;DHT22;7805;49.554;7.632;2023-08-17T05:36:28;19.60;99.90
15413;DHT22;7805;49.554;7.632;2023-08-17T05:38:53;19.60;99.90
15413;DHT22;7805;49.554;7.632;2023-08-17T05:41:19;19.50;99.90
15413;DHT22;7805;49.554;7.632;2023-08-17T05:43:45;19.50;99.90
15413;DHT22;7805;49.554;7.632;2023-08-17T05:46:10;19.60;99.90
15413;DHT22;7805;49.554;7.632;2023-08-17T05:48:36;19.50;99.90
15413;DHT22;7805;49.554;7.632;2023-08-17T05:51:01;19.60;99.90
15413;DHT22;7805;49.554;7.632;2023-08-17T05:53:27;19.70;99.90
15413;DHT22;7805;49.554;7.632;2023-08-17T05:55:52;20.10;99.90
15413;DHT22;7805;49.554;7.632;2023-08-17T05:58:18;19.80;99.90
15413;DHT22;7805;49.554;7.632;2023-08-17T06:00:44;19.90;99.90
15413;DHT22;7805;49.554;7.632;2023-08-17T06:03:09;19.90;99.90
15413;DHT22;7805;49.554;7.632;2023-08-17T06:05:36;19.90;99.90
15413;DHT22;7805;49.554;7.632;2023-08-17T06:08:01;20.00;99.90
15413;DHT22;7805;49.554;7.632;2023-08-17T06:10:27;20.00;99.90
15413;DHT22;7805;49.554;7.632;2023-08-17T06:12:56;20.00;99.90
15413;DHT22;7805;49.554;7.632;2023-08-17T06:15:22;19.90;99.90
15413;DHT22;7805;49.554;7.632;2023-08-17T06:17:48;19.80;99.90
15413;DHT22;7805;49.554;7.632;2023-08-17T06:20:17;19.90;99.90
15413;DHT22;7805;49.554;7.632;2023-08-17T06:22:43;20.10;99.90
15413;DHT22;7805;49.554;7.632;2023-08-17T06:25:09;20.10;99.90
15413;DHT22;7805;49.554;7.632;2023-08-17T06:27:35;20.10;99.90
15413;DHT22;7805;49.554;7.632;2023-08-17T06:30:04;20.20;99.90
15413;DHT22;7805;49.554;7.632;2023-08-17T06:32:31;20.10;99.90
15413;DHT22;7805;49.554;7.632;2023-08-17T06:34:57;20.10;99.90
15413;DHT22;7805;49.554;7.632;2023-08-17T06:37:22;20.10;99.90
15413;DHT22;7805;49.554;7.632;2023-08-17T06:39:48;20.20;99.90
15413;DHT22;7805;49.554;7.632;2023-08-17T06:42:13;20.20;99.90
15413;DHT22;7805;49.554;7.632;2023-08-17T06:44:39;20.30;99.90
15413;DHT22;7805;49.554;7.632;2023-08-17T06:47:05;20.40;99.90
15413;DHT22;7805;49.554;7.632;2023-08-17T06:49:31;20.50;99.90
15413;DHT22;7805;49.554;7.632;2023-08-17T06:51:56;20.30;99.90
15413;DHT22;7805;49.554;7.632;2023-08-17T06:54:22;20.40;99.90
15413;DHT22;7805;49.554;7.632;2023-08-17T06:56:47;20.50;99.90
15413;DHT22;7805;49.554;7.632;2023-08-17T06:59:13;20.70;99.90
15413;DHT22;7805;49.554;7.632;2023-08-17T07:01:38;20.80;99.90
15413;DHT22;7805;49.554;7.632;2023-08-17T07:04:04;21.00;99.90
15413;DHT22;7805;49.554;7.632;2023-08-17T07:06:30;21.10;99.90
15413;DHT22;7805;49.554;7.632;2023-08-17T07:08:56;23.20;99.90
15413;DHT22;7805;49.554;7.632;2023-08-17T07:11:22;21.30;99.90
15413;DHT22;7805;49.554;7.632;2023-08-17T07:13:47;21.40;99.90
15413;DHT22;7805;49.554;7.632;2023-08-17T07:16:13;21.50;99.90
15413;DHT22;7805;49.554;7.632;2023-08-17T07:18:39;21.40;99.90
15413;DHT22;7805;49.554;7.632;2023-08-17T07:21:05;21.50;99.90
15413;DHT22;7805;49.554;7.632;2023-08-17T07:23:31;21.60;99.90
15413;DHT22;7805;49.554;7.632;2023-08-17T07:25:56;21.50;99.90
15413;DHT22;7805;49.554;7.632;2023-08-17T07:28:22;21.60;99.90
15413;DHT22;7805;49.554;7.632;2023-08-17T07:30:47;21.60;99.90
15413;DHT22;7805;49.554;7.632;2023-08-17T07:33:13;21.60;99.90
15413;DHT22;7805;49.554;7.632;2023-08-17T07:35:38;21.70;99.90
15413;DHT22;7805;49.554;7.632;2023-08-17T07:38:04;21.80;99.90
15413;DHT22;7805;49.554;7.632;2023-08-17T07:40:30;21.80;99.90
15413;DHT22;7805;49.554;7.632;2023-08-17T07:42:55;21.80;99.90
15413;DHT22;7805;49.554;7.632;2023-08-17T07:45:21;21.70;99.90
15413;DHT22;7805;49.554;7.632;2023-08-17T07:47:46;21.90;99.90
15413;DHT22;7805;49.554;7.632;2023-08-17T07:50:12;21.90;99.90
15413;DHT22;7805;49.554;7.632;2023-08-17T07:52:37;22.00;99.90
15413;DHT22;7805;49.554;7.632;2023-08-17T07:55:03;22.10;99.90
15413;DHT22;7805;49.554;7.632;2023-08-17T07:57:30;22.20;99.90
15413;DHT22;7805;49.554;7.632;2023-08-17T07:59:55;22.20;99.90
15413;DHT22;7805;49.554;7.632;2023-08-17T08:02:21;22.10;99.90
15413;DHT22;7805;49.554;7.632;2023-08-17T08:04:46;22.20;99.90
15413;DHT22;7805;49.554;7.632;2023-08-17T08:07:12;22.20;99.90
15413;DHT22;7805;49.554;7.632;2023-08-17T08:09:37;22.20;99.90
15413;DHT22;7805;49.554;7.632;2023-08-17T08:12:03;22.40;99.90
15413;DHT22;7805;49.554;7.632;2023-08-17T08:14:29;22.40;99.90
15413;DHT22;7805;49.554;7.632;2023-08-17T08:16:55;22.40;99.90
15413;DHT22;7805;49.554;7.632;2023-08-17T08:19:20;22.60;99.90
15413;DHT22;7805;49.554;7.632;2023-08-17T08:21:46;22.90;99.90
15413;DHT22;7805;49.554;7.632;2023-08-17T08:24:11;23.10;99.90
15413;DHT22;7805;49.554;7.632;2023-08-17T08:26:37;23.00;99.90
15413;DHT22;7805;49.554;7.632;2023-08-17T08:29:03;22.90;99.90
15413;DHT22;7805;49.554;7.632;2023-08-17T08:31:28;22.90;99.90
15413;DHT22;7805;49.554;7.632;2023-08-17T08:33:54;22.80;99.90
15413;DHT22;7805;49.554;7.632;2023-08-17T08:36:20;23.00;99.90
15413;DHT22;7805;49.554;7.632;2023-08-17T08:38:45;23.10;99.90
15413;DHT22;7805;49.554;7.632;2023-08-17T08:41:11;22.90;99.90
15413;DHT22;7805;49.554;7.632;2023-08-17T08:43:38;22.80;99.90
15413;DHT22;7805;49.554;7.632;2023-08-17T08:46:04;22.80;99.90
15413;DHT22;7805;49.554;7.632;2023-08-17T08:48:31;22.80;99.90
15413;DHT22;7805;49.554;7.632;2023-08-17T08:51:00;22.80;99.90
15413;DHT22;7805;49.554;7.632;2023-08-17T08:53:37;23.00;99.90
15413;DHT22;7805;49.554;7.632;2023-08-17T08:56:03;23.10;99.90
15413;DHT22;7805;49.554;7.632;2023-08-17T08:58:31;23.50;99.90
15413;DHT22;7805;49.554;7.632;2023-08-17T09:00:57;23.20;99.90
15413;DHT22;7805;49.554;7.632;2023-08-17T09:03:25;23.30;99.90
15413;DHT22;7805;49.554;7.632;2023-08-17T09:05:51;23.40;99.90
15413;DHT22;7805;49.554;7.632;2023-08-17T09:08:21;23.40;99.90
15413;DHT22;7805;49.554;7.632;2023-08-17T09:10:48;23.60;99.90
15413;DHT22;7805;49.554;7.632;2023-08-17T09:13:14;23.60;99.90
15413;DHT22;7805;49.554;7.632;2023-08-17T09:15:39;23.60;99.90
15413;DHT22;7805;49.554;7.632;2023-08-17T09:18:05;23.70;99.90
15413;DHT22;7805;49.554;7.632;2023-08-17T09:23:03;23.80;99.90
15413;DHT22;7805;49.554;7.632;2023-08-17T09:25:31;23.90;99.90
15413;DHT22;7805;49.554;7.632;2023-08-17T09:27:57;23.90;99.90
15413;DHT22;7805;49.554;7.632;2023-08-17T09:30:23;23.90;99.90
15413;DHT22;7805;49.554;7.632;2023-08-17T09:32:48;23.90;99.90
15413;DHT22;7805;49.554;7.632;2023-08-17T09:35:15;23.80;99.90
15413;DHT22;7805;49.554;7.632;2023-08-17T09:37:40;23.90;99.90
15413;DHT22;7805;49.554;7.632;2023-08-17T09:40:06;24.00;99.90
15413;DHT22;7805;49.554;7.632;2023-08-17T09:42:35;24.10;99.90
15413;DHT22;7805;49.554;7.632;2023-08-17T09:45:02;24.20;99.90
15413;DHT22;7805;49.554;7.632;2023-08-17T09:47:29;24.40;99.90
15413;DHT22;7805;49.554;7.632;2023-08-17T09:49:55;24.70;99.90
15413;DHT22;7805;49.554;7.632;2023-08-17T09:52:23;24.90;99.90
15413;DHT22;7805;49.554;7.632;2023-08-17T09:54:49;24.80;99.90
15413;DHT22;7805;49.554;7.632;2023-08-17T09:57:17;24.80;99.90
15413;DHT22;7805;49.554;7.632;2023-08-17T09:59:43;24.70;99.90
15413;DHT22;7805;49.554;7.632;2023-08-17T10:02:17;24.70;99.90
15413;DHT22;7805;49.554;7.632;2023-08-17T10:04:47;24.80;99.90
15413;DHT22;7805;49.554;7.632;2023-08-17T10:07:15;24.90;99.90
15413;DHT22;7805;49.554;7.632;2023-08-17T10:09:47;25.20;99.90
15413;DHT22;7805;49.554;7.632;2023-08-17T10:12:15;25.30;99.90
15413;DHT22;7805;49.554;7.632;2023-08-17T10:14:49;25.20;99.90
15413;DHT22;7805;49.554;7.632;2023-08-17T10:17:25;25.20;99.90
15413;DHT22;7805;49.554;7.632;2023-08-17T10:19:54;25.40;99.90
15413;DHT22;7805;49.554;7.632;2023-08-17T10:22:36;25.60;99.90
15413;DHT22;7805;49.554;7.632;2023-08-17T10:25:09;26.00;99.90
15413;DHT22;7805;49.554;7.632;2023-08-17T10:27:37;26.40;99.90
15413;DHT22;7805;49.554;7.632;2023-08-17T10:30:03;26.70;99.90
15413;DHT22;7805;49.554;7.632;2023-08-17T10:32:29;26.90;99.90
15413;DHT22;7805;49.554;7.632;2023-08-17T10:34:55;26.90;99.90
15413;DHT22;7805;49.554;7.632;2023-08-17T10:37:22;26.80;99.90
15413;DHT22;7805;49.554;7.632;2023-08-17T10:39:50;27.00;99.90
15413;DHT22;7805;49.554;7.632;2023-08-17T10:42:33;26.90;99.90
15413;DHT22;7805;49.554;7.632;2023-08-17T10:44:59;26.90;99.90
15413;DHT22;7805;49.554;7.632;2023-08-17T10:47:31;26.90;99.90
15413;DHT22;7805;49.554;7.632;2023-08-17T10:50:21;26.90;99.90
15413;DHT22;7805;49.554;7.632;2023-08-17T10:52:49;26.80;99.90
15413;DHT22;7805;49.554;7.632;2023-08-17T10:55:15;26.70;99.90
15413;DHT22;7805;49.554;7.632;2023-08-17T10:57:41;26.70;99.90
15413;DHT22;7805;49.554;7.632;2023-08-17T11:00:41;26.70;99.90
15413;DHT22;7805;49.554;7.632;2023-08-17T11:05:46;26.70;99.90
15413;DHT22;7805;49.554;7.632;2023-08-17T11:08:31;26.80;99.90
15413;DHT22;7805;49.554;7.632;2023-08-17T11:11:17;26.90;99.90
15413;DHT22;7805;49.554;7.632;2023-08-17T11:13:45;26.90;99.90
15413;DHT22;7805;49.554;7.632;2023-08-17T11:16:12;27.20;99.90
15413;DHT22;7805;49.554;7.632;2023-08-17T11:18:38;27.30;99.90
15413;DHT22;7805;49.554;7.632;2023-08-17T11:21:07;27.80;99.90
15413;DHT22;7805;49.554;7.632;2023-08-17T11:23:34;28.00;99.90
15413;DHT22;7805;49.554;7.632;2023-08-17T11:26:00;27.60;99.90
15413;DHT22;7805;49.554;7.632;2023-08-17T11:28:28;27.50;99.90
15413;DHT22;7805;49.554;7.632;2023-08-17T11:31:02;27.40;99.90
15413;DHT22;7805;49.554;7.632;2023-08-17T11:33:29;27.70;99.90
15413;DHT22;7805;49.554;7.632;2023-08-17T11:35:56;27.80;99.90
15413;DHT22;7805;49.554;7.632;2023-08-17T11:38:22;27.60;99.90
15413;DHT22;7805;49.554;7.632;2023-08-17T11:40:49;27.10;99.90
15413;DHT22;7805;49.554;7.632;2023-08-17T11:43:14;26.90;99.90
15413;DHT22;7805;49.554;7.632;2023-08-17T11:45:40;26.80;99.90
15413;DHT22;7805;49.554;7.632;2023-08-17T11:48:07;26.70;99.90
15413;DHT22;7805;49.554;7.632;2023-08-17T11:53:00;26.20;99.90
15413;DHT22;7805;49.554;7.632;2023-08-17T11:55:29;26.10;99.90
15413;DHT22;7805;49.554;7.632;2023-08-17T11:57:55;26.00;99.90
15413;DHT22;7805;49.554;7.632;2023-08-17T12:00:22;26.00;99.90
15413;DHT22;7805;49.554;7.632;2023-08-17T12:02:48;25.80;99.90
15413;DHT22;7805;49.554;7.632;2023-08-17T12:05:22;25.70;99.90
15413;DHT22;7805;49.554;7.632;2023-08-17T12:07:49;25.80;99.90
15413;DHT22;7805;49.554;7.632;2023-08-17T12:10:15;25.70;99.90
15413;DHT22;7805;49.554;7.632;2023-08-17T12:12:41;25.60;99.90
15413;DHT22;7805;49.554;7.632;2023-08-17T12:15:07;25.80;99.90
15413;DHT22;7805;49.554;7.632;2023-08-17T12:17:34;25.90;99.90
15413;DHT22;7805;49.554;7.632;2023-08-17T12:20:00;26.10;99.90
15413;DHT22;7805;49.554;7.632;2023-08-17T12:22:27;26.20;99.90
15413;DHT22;7805;49.554;7.632;2023-08-17T12:24:53;26.40;99.90
15413;DHT22;7805;49.554;7.632;2023-08-17T12:27:21;27.00;99.90
15413;DHT22;7805;49.554;7.632;2023-08-17T12:29:51;27.60;99.90
15413;DHT22;7805;49.554;7.632;2023-08-17T12:32:18;28.10;99.90
15413;DHT22;7805;49.554;7.632;2023-08-17T12:34:44;28.40;99.90
15413;DHT22;7805;49.554;7.632;2023-08-17T12:37:10;28.60;99.90
15413;DHT22;7805;49.554;7.632;2023-08-17T12:39:37;28.50;99.90
15413;DHT22;7805;49.554;7.632;2023-08-17T12:42:03;28.70;99.90
15413;DHT22;7805;49.554;7.632;2023-08-17T12:44:29;28.80;99.90
15413;DHT22;7805;49.554;7.632;2023-08-17T12:46:54;28.70;99.90
15413;DHT22;7805;49.554;7.632;2023-08-17T12:49:20;28.70;99.90
15413;DHT22;7805;49.554;7.632;2023-08-17T12:51:45;28.60;99.90
15413;DHT22;7805;49.554;7.632;2023-08-17T12:54:11;28.60;99.90
15413;DHT22;7805;49.554;7.632;2023-08-17T12:56:36;28.70;99.90
15413;DHT22;7805;49.554;7.632;2023-08-17T12:59:02;28.80;99.90
15413;DHT22;7805;49.554;7.632;2023-08-17T13:01:28;28.60;99.90
15413;DHT22;7805;49.554;7.632;2023-08-17T13:03:53;28.50;99.90
15413;DHT22;7805;49.554;7.632;2023-08-17T13:06:19;28.30;99.90
15413;DHT22;7805;49.554;7.632;2023-08-17T13:08:46;28.30;99.90
15413;DHT22;7805;49.554;7.632;2023-08-17T13:11:11;29.50;99.90
15413;DHT22;7805;49.554;7.632;2023-08-17T13:13:37;27.80;99.90
15413;DHT22;7805;49.554;7.632;2023-08-17T13:16:03;27.70;99.90
15413;DHT22;7805;49.554;7.632;2023-08-17T13:18:29;27.70;99.90
15413;DHT22;7805;49.554;7.632;2023-08-17T13:20:54;27.70;99.90
15413;DHT22;7805;49.554;7.632;2023-08-17T13:23:20;27.50;99.90
15413;DHT22;7805;49.554;7.632;2023-08-17T13:25:46;27.20;99.90
15413;DHT22;7805;49.554;7.632;2023-08-17T13:28:11;27.30;99.90
15413;DHT22;7805;49.554;7.632;2023-08-17T13:30:38;27.10;99.90
15413;DHT22;7805;49.554;7.632;2023-08-17T13:33:05;27.10;99.90
15413;DHT22;7805;49.554;7.632;2023-08-17T13:35:32;27.00;99.90
15413;DHT22;7805;49.554;7.632;2023-08-17T13:37:58;26.80;99.90
15413;DHT22;7805;49.554;7.632;2023-08-17T13:40:23;26.90;99.90
15413;DHT22;7805;49.554;7.632;2023-08-17T13:42:49;27.30;99.90
15413;DHT22;7805;49.554;7.632;2023-08-17T13:45:15;27.90;99.90
15413;DHT22;7805;49.554;7.632;2023-08-17T13:47:40;28.50;99.90
15413;DHT22;7805;49.554;7.632;2023-08-17T13:50:06;28.90;99.90
15413;DHT22;7805;49.554;7.632;2023-08-17T13:52:32;29.50;99.90
15413;DHT22;7805;49.554;7.632;2023-08-17T13:54:58;30.00;99.90
15413;DHT22;7805;49.554;7.632;2023-08-17T13:57:23;29.90;99.90
15413;DHT22;7805;49.554;7.632;2023-08-17T13:59:49;29.80;99.90
15413;DHT22;7805;49.554;7.632;2023-08-17T14:02:14;30.10;99.90
15413;DHT22;7805;49.554;7.632;2023-08-17T14:04:40;30.40;99.90
15413;DHT22;7805;49.554;7.632;2023-08-17T14:07:05;30.50;99.90
15413;DHT22;7805;49.554;7.632;2023-08-17T14:09:31;30.60;99.90
15413;DHT22;7805;49.554;7.632;2023-08-17T14:11:57;31.00;99.90
15413;DHT22;7805;49.554;7.632;2023-08-17T14:14:22;31.20;99.90
15413;DHT22;7805;49.554;7.632;2023-08-17T14:16:48;31.20;99.90
15413;DHT22;7805;49.554;7.632;2023-08-17T14:19:13;31.20;99.90
15413;DHT22;7805;49.554;7.632;2023-08-17T14:21:39;31.10;99.90
15413;DHT22;7805;49.554;7.632;2023-08-17T14:24:05;31.00;99.90
15413;DHT22;7805;49.554;7.632;2023-08-17T14:26:32;30.90;99.90
15413;DHT22;7805;49.554;7.632;2023-08-17T14:28:57;31.10;99.90
15413;DHT22;7805;49.554;7.632;2023-08-17T14:31:23;31.00;99.90
15413;DHT22;7805;49.554;7.632;2023-08-17T14:33:48;30.90;99.90
15413;DHT22;7805;49.554;7.632;2023-08-17T14:36:15;31.00;99.90
15413;DHT22;7805;49.554;7.632;2023-08-17T14:38:41;30.90;99.90
15413;DHT22;7805;49.554;7.632;2023-08-17T14:41:06;31.00;99.90
15413;DHT22;7805;49.554;7.632;2023-08-17T14:43:33;31.20;99.90
15413;DHT22;7805;49.554;7.632;2023-08-17T14:45:59;31.40;99.90
15413;DHT22;7805;49.554;7.632;2023-08-17T14:48:25;31.60;99.90
15413;DHT22;7805;49.554;7.632;2023-08-17T14:50:51;31.70;99.90
15413;DHT22;7805;49.554;7.632;2023-08-17T14:53:16;31.30;99.90
15413;DHT22;7805;49.554;7.632;2023-08-17T14:55:42;30.90;99.90
15413;DHT22;7805;49.554;7.632;2023-08-17T14:58:07;30.70;99.90
15413;DHT22;7805;49.554;7.632;2023-08-17T15:00:33;30.40;99.90
15413;DHT22;7805;49.554;7.632;2023-08-17T15:02:59;30.30;99.90
15413;DHT22;7805;49.554;7.632;2023-08-17T15:05:25;30.20;99.90
15413;DHT22;7805;49.554;7.632;2023-08-17T15:07:50;30.30;99.90
15413;DHT22;7805;49.554;7.632;2023-08-17T15:10:16;29.70;99.90
15413;DHT22;7805;49.554;7.632;2023-08-17T15:12:41;29.80;99.90
15413;DHT22;7805;49.554;7.632;2023-08-17T15:15:07;30.40;99.90
15413;DHT22;7805;49.554;7.632;2023-08-17T15:17:33;30.70;99.90
15413;DHT22;7805;49.554;7.632;2023-08-17T15:19:59;30.80;99.90
15413;DHT22;7805;49.554;7.632;2023-08-17T15:22:25;31.00;99.90
15413;DHT22;7805;49.554;7.632;2023-08-17T15:24:51;31.20;99.90
15413;DHT22;7805;49.554;7.632;2023-08-17T15:27:17;31.20;99.90
15413;DHT22;7805;49.554;7.632;2023-08-17T15:29:42;31.00;99.90
15413;DHT22;7805;49.554;7.632;2023-08-17T15:32:08;30.90;99.90
15413;DHT22;7805;49.554;7.632;2023-08-17T15:34:34;30.70;99.90
15413;DHT22;7805;49.554;7.632;2023-08-17T15:37:00;30.80;99.90
15413;DHT22;7805;49.554;7.632;2023-08-17T15:39:26;30.80;99.90
15413;DHT22;7805;49.554;7.632;2023-08-17T15:41:52;30.80;99.90
15413;DHT22;7805;49.554;7.632;2023-08-17T15:44:18;30.60;99.90
15413;DHT22;7805;49.554;7.632;2023-08-17T15:46:44;30.60;99.90
15413;DHT22;7805;49.554;7.632;2023-08-17T15:49:10;30.70;99.90
15413;DHT22;7805;49.554;7.632;2023-08-17T15:51:37;30.70;99.90
15413;DHT22;7805;49.554;7.632;2023-08-17T15:54:03;30.90;99.90